Time;durP1;ratioP1;P1;durP2;ratioP2;P2;SDS_P1;SDS_P2;PMS_P1;PMS_P2;Temp;Humidity;BMP_temperature;BMP_pressure;BME280_temperature;BME280_humidity;BME280_pressure;Samples;Min_cycle;Max_cycle;Signal;HPM_P1;HPM_P2
2020/12/11 00:00:51;;;;;;;38.88;35.28;;;;;;;;;;5056070;28;20227;-80
2020/12/11 00:03:19;;;;;;;40.97;37.08;;;;;;;;;;5055886;28;20192;-80
2020/12/11 00:05:46;;;;;;;40.45;36.55;;;;;;;;;;5056131;28;20192;-80
2020/12/11 00:08:13;;;;;;;40.70;36.70;;;;;;;;;;5056536;28;20192;-80
2020/12/11 00:10:40;;;;;;;41.15;36.75;;;;;;;;;;5055949;28;20669;-80
2020/12/11 00:13:06;;;;;;;40.88;36.60;;;;;;;;;;5055759;28;20642;-80
2020/12/11 00:15:33;;;;;;;38.40;34.55;;;;;;;;;;5055991;28;20258;-80
2020/12/11 00:18:00;;;;;;;39.05;35.05;;;;;;;;;;5055833;28;20192;-80
2020/12/11 00:20:28;;;;;;;39.78;35.63;;;;;;;;;;5055625;28;20216;-80
2020/12/11 00:22:55;;;;;;;39.20;35.13;;;;;;;;;;5056009;28;20188;-80
2020/12/11 00:25:22;;;;;;;41.78;37.47;;;;;;;;;;5055872;28;20192;-80
2020/12/11 00:27:49;;;;;;;39.40;35.35;;;;;;;;;;5055912;28;20196;-80
2020/12/11 00:30:17;;;;;;;42.40;36.55;;;;;;;;;;5037697;28;20199;-80
2020/12/11 00:32:44;;;;;;;41.60;37.08;;;;;;;;;;5055576;28;20525;-79
2020/12/11 00:35:10;;;;;;;40.45;35.95;;;;;;;;;;5055280;28;20637;-80
2020/12/11 00:37:38;;;;;;;41.42;37.13;;;;;;;;;;5055611;28;20239;-79
2020/12/11 00:40:05;;;;;;;40.58;36.53;;;;;;;;;;5055436;28;20215;-80
2020/12/11 00:42:32;;;;;;;39.58;35.50;;;;;;;;;;5055245;28;20212;-80
2020/12/11 00:44:59;;;;;;;39.85;35.65;;;;;;;;;;5055642;28;20219;-80
2020/12/11 00:47:26;;;;;;;45.22;38.72;;;;;;;;;;5055125;28;20627;-80
2020/12/11 00:49:53;;;;;;;42.03;37.70;;;;;;;;;;5055033;28;20220;-80
2020/12/11 00:52:19;;;;;;;45.10;40.15;;;;;;;;;;5055400;28;20209;-80
2020/12/11 00:54:47;;;;;;;40.83;36.58;;;;;;;;;;5055150;28;20195;-79
2020/12/11 00:57:14;;;;;;;45.17;39.70;;;;;;;;;;5055186;28;20222;-80
2020/12/11 00:59:41;;;;;;;37.45;33.05;;;;;;;;;;5055030;28;20198;-80
2020/12/11 01:02:08;;;;;;;44.03;39.17;;;;;;;;;;5054614;28;20709;-79
2020/12/11 01:04:35;;;;;;;40.90;36.60;;;;;;;;;;5055077;28;20193;-80
2020/12/11 01:07:01;;;;;;;41.60;37.30;;;;;;;;;;5055251;28;20246;-79
2020/12/11 01:09:28;;;;;;;42.20;37.67;;;;;;;;;;5054612;28;20199;-80
2020/12/11 01:11:56;;;;;;;40.30;36.00;;;;;;;;;;5055042;28;20203;-79
2020/12/11 01:14:23;;;;;;;40.35;36.10;;;;;;;;;;5054886;28;20250;-80
2020/12/11 01:16:50;;;;;;;38.10;34.25;;;;;;;;;;5054910;28;20191;-79
2020/12/11 01:19:16;;;;;;;41.88;37.28;;;;;;;;;;5054718;28;20245;-79
2020/12/11 01:21:44;;;;;;;41.55;37.50;;;;;;;;;;5054395;28;20727;-80
2020/12/11 01:24:11;;;;;;;41.15;36.80;;;;;;;;;;5054895;28;20275;-79
2020/12/11 01:26:38;;;;;;;40.50;36.45;;;;;;;;;;5054329;28;20188;-80
2020/12/11 01:29:06;;;;;;;42.25;37.75;;;;;;;;;;5054660;28;20193;-79
2020/12/11 01:31:33;;;;;;;36.10;32.83;;;;;;;;;;5054255;28;20198;-80
2020/12/11 01:34:00;;;;;;;35.35;32.08;;;;;;;;;;5054181;28;20586;-79
2020/12/11 01:36:27;;;;;;;36.25;32.72;;;;;;;;;;5054138;28;20591;-79
2020/12/11 01:38:54;;;;;;;41.55;37.30;;;;;;;;;;5054104;28;20634;-80
2020/12/11 01:41:21;;;;;;;38.90;35.10;;;;;;;;;;5053677;28;20696;-80
2020/12/11 01:43:48;;;;;;;42.30;37.92;;;;;;;;;;5053877;28;20267;-79
2020/12/11 01:46:19;;;;;;;39.80;35.80;;;;;;;;;;5054222;28;20291;-79
2020/12/11 01:48:47;;;;;;;40.15;36.17;;;;;;;;;;5054277;28;20211;-79
2020/12/11 01:51:14;;;;;;;38.92;35.30;;;;;;;;;;5054197;28;20217;-80
2020/12/11 01:53:43;;;;;;;38.00;34.20;;;;;;;;;;5053860;28;20277;-79
2020/12/11 01:56:11;;;;;;;40.45;36.35;;;;;;;;;;5054163;28;20284;-79
2020/12/11 01:58:38;;;;;;;40.58;36.45;;;;;;;;;;5053960;28;20246;-80
2020/12/11 02:01:05;;;;;;;39.15;35.03;;;;;;;;;;5053811;28;20215;-79
2020/12/11 02:03:34;;;;;;;41.22;36.80;;;;;;;;;;5053733;28;20279;-79
2020/12/11 02:06:00;;;;;;;40.67;36.30;;;;;;;;;;5054008;28;20207;-79
2020/12/11 02:08:27;;;;;;;36.95;33.08;;;;;;;;;;5054061;28;20195;-79
2020/12/11 02:10:54;;;;;;;40.92;36.47;;;;;;;;;;5053945;28;20189;-79
2020/12/11 02:13:21;;;;;;;41.22;37.03;;;;;;;;;;5052682;28;20287;-79
2020/12/11 02:15:48;;;;;;;41.53;37.22;;;;;;;;;;5052642;28;20558;-79
2020/12/11 02:18:15;;;;;;;38.38;34.78;;;;;;;;;;5053849;28;20271;-79
2020/12/11 02:20:43;;;;;;;41.45;37.00;;;;;;;;;;5053640;28;20693;-80
2020/12/11 02:23:11;;;;;;;38.75;34.95;;;;;;;;;;5053601;28;20646;-80
2020/12/11 02:25:40;;;;;;;41.38;37.08;;;;;;;;;;5053810;28;20199;-80
2020/12/11 02:28:06;;;;;;;40.78;36.80;;;;;;;;;;5055977;28;20533;-79
2020/12/11 02:30:33;;;;;;;41.50;37.17;;;;;;;;;;5042074;28;20199;-79
2020/12/11 02:33:00;;;;;;;42.28;37.78;;;;;;;;;;5060124;28;20196;-79
2020/12/11 02:35:27;;;;;;;41.78;37.67;;;;;;;;;;5058600;28;20195;-80
2020/12/11 02:37:54;;;;;;;38.65;34.80;;;;;;;;;;5053741;28;20612;-80
2020/12/11 02:40:22;;;;;;;39.65;35.72;;;;;;;;;;5053465;28;20287;-79
2020/12/11 02:42:48;;;;;;;40.90;36.47;;;;;;;;;;5053873;28;20188;-80
2020/12/11 02:45:15;;;;;;;41.60;37.40;;;;;;;;;;5053391;28;20242;-80
2020/12/11 02:47:42;;;;;;;37.60;33.80;;;;;;;;;;5053321;28;20527;-80
2020/12/11 02:50:09;;;;;;;35.05;31.73;;;;;;;;;;5053455;28;20200;-80
2020/12/11 02:52:36;;;;;;;40.90;36.60;;;;;;;;;;5053182;28;20188;-80
2020/12/11 02:55:03;;;;;;;40.40;35.97;;;;;;;;;;5056143;28;20647;-79
2020/12/11 02:57:31;;;;;;;35.53;32.10;;;;;;;;;;5057437;28;20224;-80
2020/12/11 02:59:57;;;;;;;40.88;36.97;;;;;;;;;;5056928;28;20642;-79
2020/12/11 03:02:24;;;;;;;41.67;37.58;;;;;;;;;;5057019;28;20327;-80
2020/12/11 03:04:51;;;;;;;40.22;36.03;;;;;;;;;;5057540;28;20239;-80
2020/12/11 03:07:18;;;;;;;41.40;37.30;;;;;;;;;;5057265;28;20188;-80
2020/12/11 03:09:45;;;;;;;40.47;36.58;;;;;;;;;;5057285;28;20188;-80
2020/12/11 03:12:12;;;;;;;39.58;35.75;;;;;;;;;;5057244;28;20197;-80
2020/12/11 03:14:39;;;;;;;40.45;36.20;;;;;;;;;;5057018;28;20195;-80
2020/12/11 03:17:06;;;;;;;39.13;35.15;;;;;;;;;;5056856;28;20199;-80
2020/12/11 03:19:33;;;;;;;41.45;37.40;;;;;;;;;;5056833;28;20700;-80
2020/12/11 03:22:00;;;;;;;39.33;35.42;;;;;;;;;;5056665;28;20227;-80
2020/12/11 03:24:26;;;;;;;39.03;35.13;;;;;;;;;;5057011;28;20249;-79
2020/12/11 03:26:53;;;;;;;41.85;37.63;;;;;;;;;;5055347;28;20230;-79
2020/12/11 03:29:20;;;;;;;41.20;37.10;;;;;;;;;;5056810;28;20250;-79
2020/12/11 03:31:48;;;;;;;41.25;37.15;;;;;;;;;;5056464;28;20189;-80
2020/12/11 03:34:15;;;;;;;40.08;35.95;;;;;;;;;;5056832;28;20237;-80
2020/12/11 03:36:42;;;;;;;37.85;34.38;;;;;;;;;;5056714;28;20189;-80
2020/12/11 03:39:08;;;;;;;41.55;37.45;;;;;;;;;;5056318;28;20656;-79
2020/12/11 03:41:35;;;;;;;42.13;37.85;;;;;;;;;;5056612;28;20233;-79
2020/12/11 03:44:02;;;;;;;39.40;35.42;;;;;;;;;;5056602;28;20188;-79
2020/12/11 03:46:29;;;;;;;40.85;36.75;;;;;;;;;;5056677;28;20203;-80
2020/12/11 03:48:57;;;;;;;42.17;37.42;;;;;;;;;;5056169;28;20280;-79
2020/12/11 03:51:24;;;;;;;40.88;36.65;;;;;;;;;;5056265;28;20535;-79
2020/12/11 03:53:51;;;;;;;40.25;36.20;;;;;;;;;;5056350;28;20628;-80
2020/12/11 03:56:19;;;;;;;40.22;36.38;;;;;;;;;;5056555;28;20192;-79
2020/12/11 03:58:46;;;;;;;38.63;34.88;;;;;;;;;;5056083;28;20224;-80
2020/12/11 04:01:14;;;;;;;37.55;33.85;;;;;;;;;;5055703;28;20298;-79
2020/12/11 04:03:41;;;;;;;29.33;26.83;;;;;;;;;;5056328;28;20219;-80
2020/12/11 04:06:09;;;;;;;40.13;35.95;;;;;;;;;;5055631;28;20192;-80
2020/12/11 04:08:36;;;;;;;41.42;37.17;;;;;;;;;;5056228;28;20189;-80
2020/12/11 04:11:04;;;;;;;40.15;36.22;;;;;;;;;;5056023;28;20275;-79
2020/12/11 04:13:31;;;;;;;39.58;34.83;;;;;;;;;;5038215;28;20223;-80
2020/12/11 04:15:58;;;;;;;39.00;35.05;;;;;;;;;;5055957;28;20188;-79
2020/12/11 04:18:25;;;;;;;41.22;36.97;;;;;;;;;;5055743;28;20196;-79
2020/12/11 04:20:52;;;;;;;39.65;35.60;;;;;;;;;;5055881;28;20224;-80
2020/12/11 04:23:19;;;;;;;35.33;31.73;;;;;;;;;;5055604;28;20642;-79
2020/12/11 04:25:46;;;;;;;39.03;35.33;;;;;;;;;;5055530;28;20234;-80
2020/12/11 04:28:13;;;;;;;39.00;35.20;;;;;;;;;;5055386;28;20192;-80
2020/12/11 04:30:40;;;;;;;39.42;35.65;;;;;;;;;;5054457;28;20208;-80
2020/12/11 04:33:07;;;;;;;41.10;37.15;;;;;;;;;;5055464;28;20184;-80
2020/12/11 04:35:34;;;;;;;38.88;35.00;;;;;;;;;;5055607;28;20195;-80
2020/12/11 04:38:01;;;;;;;35.53;32.30;;;;;;;;;;5055351;28;20215;-79
2020/12/11 04:40:29;;;;;;;41.95;37.63;;;;;;;;;;5054375;28;20224;-79
2020/12/11 04:42:56;;;;;;;40.08;36.35;;;;;;;;;;5055474;28;20192;-80
2020/12/11 04:45:23;;;;;;;37.83;34.08;;;;;;;;;;5055790;28;20238;-80
2020/12/11 04:47:51;;;;;;;40.95;36.63;;;;;;;;;;5055063;28;20555;-79
2020/12/11 04:50:19;;;;;;;38.60;34.95;;;;;;;;;;5055017;28;20622;-79
2020/12/11 04:52:48;;;;;;;38.10;34.40;;;;;;;;;;5055634;28;20196;-80
2020/12/11 04:55:15;;;;;;;39.10;35.38;;;;;;;;;;5055352;28;20262;-80
2020/12/11 04:57:45;;;;;;;37.67;34.03;;;;;;;;;;5054863;28;20224;-80
2020/12/11 05:00:12;;;;;;;29.95;27.27;;;;;;;;;;5054717;28;20219;-79
2020/12/11 05:02:41;;;;;;;42.58;38.47;;;;;;;;;;5037217;28;20228;-80
2020/12/11 05:05:08;;;;;;;38.67;34.63;;;;;;;;;;5055019;28;20223;-80
2020/12/11 05:07:35;;;;;;;42.40;37.90;;;;;;;;;;5054967;28;20196;-79
2020/12/11 05:10:02;;;;;;;35.83;32.33;;;;;;;;;;5054660;28;20184;-80
2020/12/11 05:12:29;;;;;;;39.85;36.05;;;;;;;;;;5054869;28;20197;-80
2020/12/11 05:14:57;;;;;;;41.65;37.50;;;;;;;;;;5054615;28;20657;-80
2020/12/11 05:17:27;;;;;;;41.53;37.50;;;;;;;;;;5053637;28;20189;-80
2020/12/11 05:19:54;;;;;;;42.80;38.70;;;;;;;;;;5054835;28;20216;-80
2020/12/11 05:22:21;;;;;;;32.22;29.30;;;;;;;;;;5053416;28;20689;-80
2020/12/11 05:24:49;;;;;;;40.05;36.00;;;;;;;;;;5054592;28;20200;-80
2020/12/11 05:27:35;;;;;;;39.17;35.22;;;;;;;;;;5054351;28;20533;-79
2020/12/11 05:30:17;;;;;;;41.20;37.38;;;;;;;;;;5054087;28;20195;-80
2020/12/11 05:32:46;;;;;;;40.63;36.78;;;;;;;;;;5051923;28;20208;-79
2020/12/11 05:35:22;;;;;;;39.17;35.45;;;;;;;;;;5054387;28;20585;-79
2020/12/11 05:37:49;;;;;;;36.72;32.97;;;;;;;;;;5054406;28;20196;-79
2020/12/11 05:40:17;;;;;;;37.75;34.25;;;;;;;;;;5054317;28;20198;-80
2020/12/11 05:42:44;;;;;;;27.80;25.67;;;;;;;;;;5054086;28;20196;-80
2020/12/11 05:45:18;;;;;;;40.80;36.90;;;;;;;;;;5053986;28;20708;-79
2020/12/11 05:47:46;;;;;;;39.78;36.22;;;;;;;;;;5052853;28;20206;-80
2020/12/11 05:50:19;;;;;;;37.50;33.95;;;;;;;;;;5054219;28;20191;-80
2020/12/11 05:52:48;;;;;;;40.47;36.45;;;;;;;;;;5054361;28;20234;-80
2020/12/11 05:55:19;;;;;;;35.67;32.63;;;;;;;;;;5054041;28;20268;-80
2020/12/11 05:57:46;;;;;;;31.95;28.98;;;;;;;;;;5053986;28;20642;-80
2020/12/11 06:00:13;;;;;;;37.25;33.80;;;;;;;;;;5054219;28;20197;-80
2020/12/11 06:02:40;;;;;;;40.55;36.55;;;;;;;;;;5053288;28;20289;-80
2020/12/11 06:05:08;;;;;;;40.55;36.85;;;;;;;;;;5053648;28;20704;-80
2020/12/11 06:07:35;;;;;;;40.38;36.60;;;;;;;;;;5053707;28;20220;-80
2020/12/11 06:10:04;;;;;;;33.83;30.73;;;;;;;;;;5036163;28;20314;-80
2020/12/11 06:12:32;;;;;;;38.42;34.83;;;;;;;;;;5053750;28;20196;-80
2020/12/11 06:15:04;;;;;;;37.75;34.28;;;;;;;;;;5053530;28;20281;-79
2020/12/11 06:17:33;;;;;;;36.35;32.92;;;;;;;;;;5053420;28;20641;-80
2020/12/11 06:20:01;;;;;;;39.40;35.85;;;;;;;;;;5053542;28;20236;-80
2020/12/11 06:22:29;;;;;;;38.88;35.47;;;;;;;;;;5053646;28;20212;-80
2020/12/11 06:24:56;;;;;;;38.60;35.05;;;;;;;;;;5053409;28;20192;-80
2020/12/11 06:27:31;;;;;;;36.75;33.47;;;;;;;;;;5054023;28;20585;-79
2020/12/11 06:29:58;;;;;;;37.25;33.90;;;;;;;;;;5056424;28;20205;-80
2020/12/11 06:32:32;;;;;;;35.63;32.58;;;;;;;;;;5057696;28;20231;-80
2020/12/11 06:35:10;;;;;;;30.75;28.35;;;;;;;;;;5056656;28;20242;-80
2020/12/11 06:37:41;;;;;;;40.53;36.70;;;;;;;;;;5057798;28;20195;-80
2020/12/11 06:40:08;;;;;;;33.63;30.58;;;;;;;;;;5057468;28;20197;-81
2020/12/11 06:42:48;;;;;;;39.08;35.50;;;;;;;;;;5057729;28;20220;-80
2020/12/11 06:45:15;;;;;;;36.92;33.45;;;;;;;;;;5057276;28;20208;-80
2020/12/11 06:47:47;;;;;;;34.50;31.42;;;;;;;;;;5057243;28;20634;-80
2020/12/11 06:50:14;;;;;;;37.05;33.70;;;;;;;;;;5057395;28;20188;-80
2020/12/11 06:52:42;;;;;;;36.70;33.20;;;;;;;;;;5057780;28;20192;-80
2020/12/11 06:55:09;;;;;;;37.60;34.30;;;;;;;;;;5057618;28;20627;-80
2020/12/11 06:57:36;;;;;;;37.35;33.75;;;;;;;;;;5056974;28;20577;-80
2020/12/11 07:00:22;;;;;;;37.50;34.20;;;;;;;;;;5057322;28;20203;-80
2020/12/11 07:03:09;;;;;;;35.10;31.50;;;;;;;;;;5055702;28;20236;-81
2020/12/11 07:05:36;;;;;;;37.95;34.55;;;;;;;;;;5056933;28;20204;-80
2020/12/11 07:08:03;;;;;;;38.42;34.90;;;;;;;;;;5057311;28;20284;-80
2020/12/11 07:10:30;;;;;;;33.67;30.55;;;;;;;;;;5057186;28;20246;-80
2020/12/11 07:12:57;;;;;;;38.35;34.63;;;;;;;;;;5056655;28;20208;-80
2020/12/11 07:15:25;;;;;;;36.38;33.28;;;;;;;;;;5057259;28;20189;-80
2020/12/11 07:17:51;;;;;;;36.70;33.30;;;;;;;;;;5056732;28;20549;-80
2020/12/11 07:20:19;;;;;;;35.42;32.10;;;;;;;;;;5056769;28;20192;-80
2020/12/11 07:22:47;;;;;;;37.08;33.85;;;;;;;;;;5056483;28;20228;-80
2020/12/11 07:25:16;;;;;;;35.42;32.10;;;;;;;;;;5056985;28;20206;-80
2020/12/11 07:27:56;;;;;;;35.90;32.55;;;;;;;;;;5056573;28;20188;-80
2020/12/11 07:30:23;;;;;;;34.72;31.85;;;;;;;;;;5056753;28;20535;-80
2020/12/11 07:32:52;;;;;;;34.00;31.13;;;;;;;;;;5057096;28;20196;-80
2020/12/11 07:35:20;;;;;;;35.88;32.70;;;;;;;;;;5056989;28;20195;-81
2020/12/11 07:37:49;;;;;;;36.22;33.17;;;;;;;;;;5056747;28;20552;-81
2020/12/11 07:40:18;;;;;;;36.65;33.65;;;;;;;;;;5055578;28;20188;-81
2020/12/11 07:42:45;;;;;;;37.45;34.42;;;;;;;;;;5056356;28;20307;-80
2020/12/11 07:45:12;;;;;;;37.63;34.53;;;;;;;;;;5057109;28;20617;-79
2020/12/11 07:47:39;;;;;;;39.20;35.85;;;;;;;;;;5056587;28;20184;-79
2020/12/11 07:50:09;;;;;;;34.58;31.80;;;;;;;;;;5055341;28;20724;-80
2020/12/11 07:52:36;;;;;;;39.78;36.17;;;;;;;;;;5056237;28;20192;-80
2020/12/11 07:55:11;;;;;;;39.63;35.92;;;;;;;;;;5056371;28;20208;-81
2020/12/11 07:57:38;;;;;;;33.35;30.67;;;;;;;;;;5056468;28;20223;-82
2020/12/11 08:00:06;;;;;;;36.80;33.50;;;;;;;;;;5056585;28;20187;-82
2020/12/11 08:02:34;;;;;;;33.20;30.50;;;;;;;;;;5056126;28;20271;-82
2020/12/11 08:05:02;;;;;;;36.88;33.75;;;;;;;;;;5038851;28;20193;-81
2020/12/11 08:07:29;;;;;;;30.10;27.60;;;;;;;;;;5055976;28;20295;-82
2020/12/11 08:10:07;;;;;;;37.90;34.58;;;;;;;;;;5056087;28;20184;-82
2020/12/11 08:12:34;;;;;;;35.53;32.22;;;;;;;;;;5056584;28;20222;-82
2020/12/11 08:15:02;;;;;;;35.58;32.20;;;;;;;;;;5056337;28;20199;-81
2020/12/11 08:17:31;;;;;;;37.67;34.38;;;;;;;;;;5056449;28;20192;-82
2020/12/11 08:19:59;;;;;;;38.50;35.22;;;;;;;;;;5056316;28;20192;-81
2020/12/11 08:22:31;;;;;;;36.13;32.92;;;;;;;;;;5056153;28;20326;-81
2020/12/11 08:24:58;;;;;;;36.58;33.28;;;;;;;;;;5056035;28;20243;-82
2020/12/11 08:27:26;;;;;;;35.50;32.30;;;;;;;;;;5055786;28;20634;-81
2020/12/11 08:30:00;;;;;;;39.55;35.85;;;;;;;;;;5056237;28;20188;-82
2020/12/11 08:32:28;;;;;;;39.60;36.10;;;;;;;;;;5056007;28;20212;-81
2020/12/11 08:34:55;;;;;;;38.13;34.67;;;;;;;;;;5056591;28;20192;-81
2020/12/11 08:37:22;;;;;;;39.28;35.80;;;;;;;;;;5037216;28;20222;-79
2020/12/11 08:39:48;;;;;;;39.72;36.33;;;;;;;;;;5055123;28;20635;-79
2020/12/11 08:45:24;;;;;;;38.15;34.63;;;;;;;;;;5054753;28;20204;-82
2020/12/11 08:48:17;;;;;;;38.38;35.05;;;;;;;;;;5055512;28;20577;-79
2020/12/11 08:50:46;;;;;;;34.33;31.33;;;;;;;;;;5053970;28;20659;-79
2020/12/11 08:53:14;;;;;;;37.63;34.25;;;;;;;;;;5055095;28;20193;-81
2020/12/11 08:55:42;;;;;;;38.58;35.28;;;;;;;;;;5055281;28;20246;-81
2020/12/11 08:58:09;;;;;;;39.22;35.85;;;;;;;;;;5054554;28;20590;-79
2020/12/11 09:00:36;;;;;;;39.90;36.33;;;;;;;;;;5053523;28;20246;-82
2020/12/11 09:03:04;;;;;;;42.03;38.38;;;;;;;;;;5054817;28;20240;-80
2020/12/11 09:05:31;;;;;;;40.80;37.40;;;;;;;;;;5054882;28;20188;-81
2020/12/11 09:07:58;;;;;;;38.97;35.78;;;;;;;;;;5054727;28;20195;-80
2020/12/11 09:10:24;;;;;;;38.20;34.70;;;;;;;;;;5054605;28;20190;-80
2020/12/11 09:12:53;;;;;;;40.15;36.75;;;;;;;;;;5054564;28;20551;-80
2020/12/11 09:15:20;;;;;;;36.63;33.47;;;;;;;;;;5055077;28;20220;-80
2020/12/11 09:17:47;;;;;;;36.60;33.30;;;;;;;;;;5055006;28;20188;-81
2020/12/11 09:20:16;;;;;;;35.25;32.22;;;;;;;;;;5055330;28;20195;-82
2020/12/11 09:22:43;;;;;;;32.13;29.40;;;;;;;;;;5055027;28;20267;-78
2020/12/11 09:25:10;;;;;;;37.75;34.45;;;;;;;;;;5037121;28;20196;-82
2020/12/11 09:27:40;;;;;;;37.97;34.50;;;;;;;;;;5037708;28;20188;-82
2020/12/11 09:30:23;;;;;;;37.20;33.60;;;;;;;;;;5054562;28;20207;-82
2020/12/11 09:32:57;;;;;;;39.08;35.60;;;;;;;;;;5054505;28;20192;-80
2020/12/11 09:35:26;;;;;;;39.03;35.53;;;;;;;;;;5054375;28;20726;-77
2020/12/11 09:37:53;;;;;;;37.63;33.88;;;;;;;;;;5071702;28;20200;-84
2020/12/11 09:40:24;;;;;;;35.72;32.85;;;;;;;;;;5075831;28;20195;-85
2020/12/11 09:45:38;;;;;;;34.28;31.17;;;;;;;;;;5074515;28;20221;-83
2020/12/11 09:51:04;;;;;;;33.03;30.23;;;;;;;;;;5067437;28;20291;-84
2020/12/11 09:56:12;;;;;;;31.33;28.73;;;;;;;;;;5074404;28;20196;-83
2020/12/11 09:58:43;;;;;;;33.58;30.58;;;;;;;;;;5074355;28;20245;-83
2020/12/11 10:01:10;;;;;;;30.80;28.10;;;;;;;;;;5074130;28;20309;-84
2020/12/11 10:03:40;;;;;;;37.88;34.40;;;;;;;;;;5073898;28;20684;-83
2020/12/11 10:06:09;;;;;;;36.65;33.40;;;;;;;;;;5074277;28;20648;-83
2020/12/11 10:08:36;;;;;;;36.85;33.58;;;;;;;;;;5074527;28;20585;-85
2020/12/11 10:11:06;;;;;;;35.85;32.60;;;;;;;;;;5074363;28;20192;-84
2020/12/11 10:13:35;;;;;;;32.03;29.13;;;;;;;;;;5074503;28;20614;-83
2020/12/11 10:16:02;;;;;;;37.55;34.05;;;;;;;;;;5074288;28;20199;-84
2020/12/11 10:18:29;;;;;;;28.77;26.38;;;;;;;;;;5074327;28;20637;-84
2020/12/11 10:20:56;;;;;;;32.15;29.30;;;;;;;;;;5074314;28;20187;-85
2020/12/11 10:23:28;;;;;;;33.13;30.42;;;;;;;;;;5074332;28;20525;-84
2020/12/11 10:25:55;;;;;;;31.20;28.08;;;;;;;;;;5074625;28;20569;-84
2020/12/11 10:28:22;;;;;;;35.85;32.55;;;;;;;;;;5074377;28;20569;-83
2020/12/11 10:30:50;;;;;;;37.08;33.70;;;;;;;;;;5074123;28;20571;-84
2020/12/11 10:33:17;;;;;;;36.88;33.55;;;;;;;;;;5056405;28;20242;-84
2020/12/11 10:35:44;;;;;;;35.00;32.05;;;;;;;;;;5056490;28;20183;-83
2020/12/11 10:38:10;;;;;;;36.80;33.50;;;;;;;;;;5074314;28;20200;-83
2020/12/11 10:40:38;;;;;;;36.25;32.78;;;;;;;;;;5074407;28;20192;-82
2020/12/11 10:43:05;;;;;;;35.08;31.95;;;;;;;;;;5074250;28;20698;-84
2020/12/11 10:45:32;;;;;;;36.33;32.85;;;;;;;;;;5074111;28;20242;-83
2020/12/11 10:47:59;;;;;;;33.15;30.20;;;;;;;;;;5074167;28;20184;-83
2020/12/11 10:50:25;;;;;;;34.72;31.70;;;;;;;;;;5073854;28;20192;-83
2020/12/11 10:52:52;;;;;;;34.10;30.90;;;;;;;;;;5074171;28;20192;-83
2020/12/11 10:55:19;;;;;;;34.67;31.35;;;;;;;;;;5073982;28;20196;-83
2020/12/11 10:57:47;;;;;;;42.67;38.55;;;;;;;;;;5056060;28;20220;-83
2020/12/11 11:00:14;;;;;;;44.83;40.75;;;;;;;;;;5073945;28;20193;-84
2020/12/11 11:02:42;;;;;;;37.35;33.97;;;;;;;;;;5072218;28;20686;-83
2020/12/11 11:05:09;;;;;;;35.42;32.33;;;;;;;;;;5073912;28;20191;-82
2020/12/11 11:07:36;;;;;;;33.55;30.65;;;;;;;;;;5074249;28;20284;-83
2020/12/11 11:10:14;;;;;;;41.08;37.08;;;;;;;;;;5074160;28;20525;-83
2020/12/11 11:12:44;;;;;;;39.50;35.50;;;;;;;;;;5073826;28;20192;-83
2020/12/11 11:15:37;;;;;;;42.75;39.15;;;;;;;;;;5075313;28;20215;-83
2020/12/11 11:18:18;;;;;;;38.15;34.80;;;;;;;;;;5077099;28;20630;-83
2020/12/11 11:23:50;;;;;;;39.67;36.17;;;;;;;;;;5077400;28;20270;-83
2020/12/11 11:26:43;;;;;;;37.58;33.92;;;;;;;;;;5077395;28;20696;-83
2020/12/11 11:29:10;;;;;;;35.88;32.58;;;;;;;;;;5077834;28;20193;-85
2020/12/11 11:31:37;;;;;;;37.25;33.90;;;;;;;;;;5077342;28;20251;-86
2020/12/11 11:34:05;;;;;;;39.10;35.58;;;;;;;;;;5077702;28;20198;-83
2020/12/11 11:36:32;;;;;;;39.47;36.03;;;;;;;;;;5059697;28;20602;-82
2020/12/11 11:38:58;;;;;;;39.60;36.13;;;;;;;;;;5077309;28;20249;-83
2020/12/11 11:47:10;;;;;;;36.58;33.40;;;;;;;;;;5076969;28;20192;-83
2020/12/11 11:49:50;;;;;;;39.80;36.00;;;;;;;;;;5077049;28;20217;-87
2020/12/11 11:52:21;;;;;;;39.15;35.55;;;;;;;;;;5077287;28;20650;-84
2020/12/11 11:54:48;;;;;;;40.00;36.30;;;;;;;;;;5076805;28;20204;-86
2020/12/11 11:57:15;;;;;;;35.63;32.33;;;;;;;;;;5076880;28;20225;-85
2020/12/11 11:59:41;;;;;;;40.35;36.45;;;;;;;;;;5076848;28;20197;-85
2020/12/11 12:02:09;;;;;;;42.30;38.55;;;;;;;;;;5076537;28;20240;-89
2020/12/11 12:04:36;;;;;;;34.92;31.80;;;;;;;;;;5076861;28;20671;-88
2020/12/11 12:07:03;;;;;;;43.35;39.05;;;;;;;;;;5076922;28;20577;-86
2020/12/11 12:09:30;;;;;;;37.13;33.92;;;;;;;;;;5076976;28;20280;-87
2020/12/11 12:11:57;;;;;;;34.30;31.20;;;;;;;;;;5077062;28;20194;-86
2020/12/11 12:14:24;;;;;;;35.80;32.50;;;;;;;;;;5077341;28;20590;-86
2020/12/11 12:16:52;;;;;;;38.65;34.78;;;;;;;;;;5077952;28;20594;-84
2020/12/11 12:19:26;;;;;;;39.05;35.35;;;;;;;;;;5077005;28;20250;-88
2020/12/11 12:30:11;;;;;;;38.55;34.92;;;;;;;;;;5034534;28;20197;-90
2020/12/11 12:32:51;;;;;;;40.17;36.33;;;;;;;;;;5034603;28;20208;-89
2020/12/11 12:35:32;;;;;;;32.33;29.52;;;;;;;;;;5019928;28;20193;-90
2020/12/11 12:37:59;;;;;;;36.13;32.58;;;;;;;;;;5034465;28;20284;-90
2020/12/11 12:42:14;;;;;;;37.22;33.58;;;;;;;;;;5034557;28;20194;-89
2020/12/11 12:43:35;;;;;;;42.17;37.88;;;;;;;;;;5034113;28;20201;-89
2020/12/11 12:46:02;;;;;;;42.42;38.15;;;;;;;;;;5034773;28;20198;-89
2020/12/11 12:48:29;;;;;;;39.88;35.85;;;;;;;;;;5034591;28;20636;-88
2020/12/11 12:50:57;;;;;;;40.88;36.85;;;;;;;;;;5034575;28;20206;-89
2020/12/11 12:53:24;;;;;;;34.67;31.48;;;;;;;;;;5033878;28;20216;-89
2020/12/11 12:58:33;;;;;;;37.47;33.60;;;;;;;;;;5034021;28;20206;-88
2020/12/11 13:01:06;;;;;;;40.00;36.47;;;;;;;;;;5033582;28;20194;-87
2020/12/11 13:03:58;;;;;;;35.95;32.70;;;;;;;;;;5044591;28;20312;-87
2020/12/11 13:06:25;;;;;;;31.13;28.38;;;;;;;;;;5062075;28;20188;-89
2020/12/11 13:08:52;;;;;;;39.60;35.85;;;;;;;;;;5076188;28;20201;-88
2020/12/11 13:11:19;;;;;;;37.78;34.17;;;;;;;;;;5075339;28;20192;-89
2020/12/11 13:13:46;;;;;;;36.10;32.75;;;;;;;;;;5075329;28;20196;-87
2020/12/11 13:16:13;;;;;;;38.60;34.90;;;;;;;;;;5075774;28;20184;-82
2020/12/11 13:18:40;;;;;;;39.67;35.72;;;;;;;;;;5075329;28;20189;-85
2020/12/11 13:21:12;;;;;;;37.28;33.67;;;;;;;;;;5075410;28;20548;-84
2020/12/11 13:26:34;;;;;;;40.63;37.10;;;;;;;;;;5053006;28;20208;-89
2020/12/11 13:29:01;;;;;;;41.58;37.58;;;;;;;;;;5075475;28;20231;-89
2020/12/11 13:31:28;;;;;;;39.97;36.22;;;;;;;;;;5074855;28;20195;-88
2020/12/11 13:33:55;;;;;;;40.53;36.50;;;;;;;;;;5075090;28;20246;-89
2020/12/11 13:36:21;;;;;;;39.97;36.22;;;;;;;;;;5075282;28;20259;-88
2020/12/11 13:38:50;;;;;;;34.15;31.02;;;;;;;;;;5074808;28;20200;-88
2020/12/11 13:41:17;;;;;;;34.55;31.58;;;;;;;;;;5075012;28;20219;-87
2020/12/11 13:43:44;;;;;;;38.90;35.33;;;;;;;;;;5075013;28;20185;-88
2020/12/11 13:46:11;;;;;;;31.60;28.73;;;;;;;;;;5073116;28;20204;-87
2020/12/11 13:48:38;;;;;;;38.35;35.05;;;;;;;;;;5075042;28;20197;-87
2020/12/11 13:51:05;;;;;;;38.80;35.00;;;;;;;;;;5075038;28;20534;-87
2020/12/11 13:53:33;;;;;;;36.25;32.80;;;;;;;;;;5074820;28;20198;-86
2020/12/11 13:56:01;;;;;;;37.50;33.92;;;;;;;;;;5075571;28;20214;-86
2020/12/11 13:58:28;;;;;;;37.20;33.97;;;;;;;;;;5073507;28;20653;-87
2020/12/11 14:00:54;;;;;;;35.15;31.95;;;;;;;;;;5074335;28;20184;-82
2020/12/11 14:03:21;;;;;;;33.85;30.42;;;;;;;;;;5074146;28;20262;-80
2020/12/11 14:05:51;;;;;;;36.80;32.92;;;;;;;;;;5073999;28;20201;-94
2020/12/11 14:08:18;;;;;;;37.38;33.83;;;;;;;;;;5074074;28;20707;-81
2020/12/11 14:10:44;;;;;;;36.75;33.40;;;;;;;;;;5074164;28;20192;-78
2020/12/11 14:13:12;;;;;;;31.55;28.50;;;;;;;;;;5074120;28;20199;-81
2020/12/11 14:15:39;;;;;;;34.47;31.30;;;;;;;;;;5073940;28;20204;-80
2020/12/11 14:18:13;;;;;;;34.78;31.70;;;;;;;;;;5073529;28;20193;-79
2020/12/11 14:23:22;;;;;;;37.35;33.85;;;;;;;;;;5074119;28;20232;-78
2020/12/11 14:25:49;;;;;;;36.83;33.22;;;;;;;;;;5073876;28;20188;-80
2020/12/11 14:28:17;;;;;;;36.50;33.00;;;;;;;;;;5074311;28;20196;-81
2020/12/11 14:30:44;;;;;;;39.63;35.85;;;;;;;;;;5074004;28;20250;-88
2020/12/11 14:33:11;;;;;;;38.90;35.10;;;;;;;;;;5073819;28;20189;-80
2020/12/11 14:35:38;;;;;;;37.20;34.00;;;;;;;;;;5073819;28;20197;-80
2020/12/11 14:38:14;;;;;;;37.75;34.30;;;;;;;;;;5073964;28;20219;-79
2020/12/11 14:40:41;;;;;;;35.10;32.20;;;;;;;;;;5073884;28;20192;-79
2020/12/11 14:43:08;;;;;;;33.33;30.45;;;;;;;;;;5073767;28;20714;-79
2020/12/11 14:45:36;;;;;;;38.03;34.38;;;;;;;;;;5073541;28;20245;-80
2020/12/11 14:48:03;;;;;;;37.38;34.25;;;;;;;;;;5073781;28;20199;-80
2020/12/11 14:50:30;;;;;;;35.35;32.28;;;;;;;;;;5077210;28;20649;-81
2020/12/11 14:52:57;;;;;;;39.03;35.17;;;;;;;;;;5077773;28;20549;-80
2020/12/11 14:55:24;;;;;;;38.47;35.20;;;;;;;;;;5077369;28;20287;-80
2020/12/11 14:57:50;;;;;;;35.42;32.03;;;;;;;;;;5077646;28;20225;-81
2020/12/11 15:00:17;;;;;;;33.45;30.55;;;;;;;;;;5077358;28;20597;-78